Narberth, United Kingdom
Current Conditions -  °F | °C
As of 9:50 AM on Thursday 27 Nov 2014 (Local Time) from EGOP Reporting Station
Scattered Clouds Scattered Clouds  
Wind Chill: 36°   Ceiling: Unl
Heat Index: 41°   Visibility: 6mi
Dew Point: 41°   Wind: 7mph
Humidity: 100%   Direction: 80°E
Pressure: 29.56"   Gusts: NA
Location:  51.8°N, 4.74°W
Report Text: EGOP 270950Z AUTO 08006KT 9999 // SCT042/// 05/05 Q1001
Loading
Personal Weather Stations






























Interactive Weather Map New forecast layout! Learn more

10-Day Weather Forecast

Advertisements
Track Severe Weather on mobile